Time;durP1;ratioP1;P1;durP2;ratioP2;P2;SDS_P1;SDS_P2;PMS_P1;PMS_P2;Temp;Humidity;BMP_temperature;BMP_pressure;BME280_temperature;BME280_humidity;BME280_pressure;Samples;Min_cycle;Max_cycle;Signal;HPM_P1;HPM_P2
2022/03/30 00:02:01;;;;;;;35.85;14.90;;;;;;;;;;4917732;29;20040;-71
2022/03/30 00:04:27;;;;;;;42.35;15.93;;;;;;;;;;4917861;29;20370;-70
2022/03/30 00:06:53;;;;;;;38.83;15.57;;;;;;;;;;4917740;29;20055;-72
2022/03/30 00:09:19;;;;;;;33.78;15.63;;;;;;;;;;4917586;29;20482;-72
2022/03/30 00:11:45;;;;;;;30.80;15.20;;;;;;;;;;4916631;29;20052;-71
2022/03/30 00:14:11;;;;;;;34.63;13.93;;;;;;;;;;4916874;29;20374;-70
2022/03/30 00:16:38;;;;;;;31.75;14.35;;;;;;;;;;4917964;29;20067;-73
2022/03/30 00:19:04;;;;;;;36.08;14.82;;;;;;;;;;4917329;29;20063;-72
2022/03/30 00:21:30;;;;;;;25.83;13.27;;;;;;;;;;4917587;29;20393;-72
2022/03/30 00:23:56;;;;;;;32.22;14.00;;;;;;;;;;4917599;29;20028;-74
2022/03/30 00:26:22;;;;;;;28.55;13.52;;;;;;;;;;4917570;29;20033;-71
2022/03/30 00:28:48;;;;;;;34.33;13.35;;;;;;;;;;4917108;29;20052;-72
2022/03/30 00:31:18;;;;;;;29.25;12.88;;;;;;;;;;4917414;29;20510;-71
2022/03/30 00:33:44;;;;;;;33.03;13.38;;;;;;;;;;4917644;29;20180;-71
2022/03/30 00:36:10;;;;;;;36.22;13.80;;;;;;;;;;4917163;29;20028;-72
2022/03/30 00:38:36;;;;;;;33.72;13.55;;;;;;;;;;4916928;29;20038;-72
2022/03/30 00:41:02;;;;;;;27.95;13.15;;;;;;;;;;4917253;29;20032;-73
2022/03/30 00:43:28;;;;;;;26.33;11.23;;;;;;;;;;4917514;29;20087;-72
2022/03/30 00:45:55;;;;;;;28.75;12.02;;;;;;;;;;4917079;29;20483;-72
2022/03/30 00:48:21;;;;;;;28.13;11.80;;;;;;;;;;4917248;29;20028;-75
2022/03/30 00:50:47;;;;;;;24.42;11.80;;;;;;;;;;4917066;29;20040;-72
2022/03/30 00:53:13;;;;;;;27.08;11.90;;;;;;;;;;4916730;29;20088;-75
2022/03/30 00:55:39;;;;;;;33.08;11.48;;;;;;;;;;4917103;29;20036;-72
2022/03/30 00:58:06;;;;;;;33.53;12.95;;;;;;;;;;4916731;29;20496;-75
2022/03/30 01:00:32;;;;;;;32.35;11.63;;;;;;;;;;4916628;29;20071;-72
2022/03/30 01:02:58;;;;;;;30.65;12.77;;;;;;;;;;4917277;29;20476;-71
2022/03/30 01:05:24;;;;;;;30.92;11.40;;;;;;;;;;4917097;29;20044;-72
2022/03/30 01:07:50;;;;;;;28.42;12.27;;;;;;;;;;4916811;29;20032;-72
2022/03/30 01:10:17;;;;;;;34.15;12.27;;;;;;;;;;4916629;29;20148;-74
2022/03/30 01:12:44;;;;;;;29.95;12.48;;;;;;;;;;4916560;29;20024;-74
2022/03/30 01:15:12;;;;;;;31.27;14.15;;;;;;;;;;4916399;29;20024;-72
2022/03/30 01:17:38;;;;;;;29.92;13.32;;;;;;;;;;4916700;29;20084;-73
2022/03/30 01:20:10;;;;;;;35.38;14.98;;;;;;;;;;4916784;29;20028;-73
2022/03/30 01:22:36;;;;;;;37.83;15.77;;;;;;;;;;4916844;29;20115;-73
2022/03/30 01:25:03;;;;;;;43.47;15.73;;;;;;;;;;4915293;29;20095;-74
2022/03/30 01:27:30;;;;;;;36.55;15.88;;;;;;;;;;4916420;29;20436;-72
2022/03/30 01:32:41;;;;;;;35.75;16.92;;;;;;;;;;4916620;29;20044;-73
2022/03/30 01:35:07;;;;;;;46.50;17.63;;;;;;;;;;4916960;29;20427;-73
2022/03/30 01:37:33;;;;;;;35.95;16.17;;;;;;;;;;4916454;29;20032;-74
2022/03/30 01:40:04;;;;;;;34.22;16.27;;;;;;;;;;4916236;29;20035;-72
2022/03/30 01:42:31;;;;;;;40.70;16.90;;;;;;;;;;4915878;29;20040;-73
2022/03/30 01:44:56;;;;;;;36.33;16.50;;;;;;;;;;4915306;29;20050;-72
2022/03/30 01:47:24;;;;;;;43.60;16.70;;;;;;;;;;4915902;29;20554;-73
2022/03/30 01:49:50;;;;;;;36.13;14.95;;;;;;;;;;4915862;29;20032;-73
2022/03/30 01:52:16;;;;;;;38.10;15.05;;;;;;;;;;4916069;29;20040;-73
2022/03/30 01:54:43;;;;;;;30.35;14.38;;;;;;;;;;4915968;29;20028;-73
2022/03/30 01:57:13;;;;;;;35.47;14.50;;;;;;;;;;4916039;29;20063;-71
2022/03/30 01:59:42;;;;;;;35.58;14.35;;;;;;;;;;4916097;29;20032;-72
2022/03/30 02:02:09;;;;;;;36.85;16.30;;;;;;;;;;4915875;29;20088;-74
2022/03/30 02:04:38;;;;;;;31.55;13.40;;;;;;;;;;4916150;29;20056;-72
2022/03/30 02:07:08;;;;;;;24.00;11.25;;;;;;;;;;4915995;29;20048;-72
2022/03/30 02:09:34;;;;;;;28.15;12.27;;;;;;;;;;4914866;29;20036;-72
2022/03/30 02:11:59;;;;;;;29.80;11.55;;;;;;;;;;4915630;29;20024;-73
2022/03/30 02:14:25;;;;;;;26.50;11.68;;;;;;;;;;4915629;29;20040;-73
2022/03/30 02:16:51;;;;;;;23.42;10.55;;;;;;;;;;4914477;29;20031;-75
2022/03/30 02:19:17;;;;;;;23.60;11.38;;;;;;;;;;4915627;29;20040;-75
2022/03/30 02:21:43;;;;;;;30.58;11.77;;;;;;;;;;4915561;29;20020;-74
2022/03/30 02:24:09;;;;;;;28.48;11.95;;;;;;;;;;4915942;29;20033;-72
2022/03/30 02:26:34;;;;;;;26.17;10.63;;;;;;;;;;4916005;29;20035;-75
2022/03/30 02:29:01;;;;;;;28.38;9.73;;;;;;;;;;4915495;29;20104;-74
2022/03/30 02:31:27;;;;;;;27.73;10.02;;;;;;;;;;4916045;29;20416;-74
2022/03/30 02:33:52;;;;;;;34.70;9.50;;;;;;;;;;4915527;29;20039;-73
2022/03/30 02:36:18;;;;;;;27.30;10.88;;;;;;;;;;4914408;29;20048;-73
2022/03/30 02:38:44;;;;;;;23.80;10.00;;;;;;;;;;4915727;29;20035;-75
2022/03/30 02:41:11;;;;;;;25.58;9.05;;;;;;;;;;4915743;29;20129;-75
2022/03/30 02:43:37;;;;;;;22.08;8.75;;;;;;;;;;4915517;29;20040;-73
2022/03/30 02:46:04;;;;;;;22.60;9.35;;;;;;;;;;4914300;29;20024;-75
2022/03/30 02:48:33;;;;;;;16.65;8.48;;;;;;;;;;4915551;29;20088;-73
2022/03/30 02:51:02;;;;;;;21.35;9.43;;;;;;;;;;4915409;29;20024;-74
2022/03/30 02:53:28;;;;;;;23.58;9.48;;;;;;;;;;4915353;29;20058;-73
2022/03/30 02:55:55;;;;;;;20.58;10.52;;;;;;;;;;4915227;29;20032;-73
2022/03/30 02:58:21;;;;;;;29.75;11.50;;;;;;;;;;4915554;29;20060;-71
2022/03/30 03:00:47;;;;;;;35.13;13.65;;;;;;;;;;4915511;29;20416;-73
2022/03/30 03:03:13;;;;;;;29.77;13.82;;;;;;;;;;4915202;29;20028;-73
2022/03/30 03:05:41;;;;;;;34.53;13.43;;;;;;;;;;4913655;29;20032;-74
2022/03/30 03:08:11;;;;;;;25.70;11.38;;;;;;;;;;4915525;29;20036;-73
2022/03/30 03:10:40;;;;;;;22.30;10.85;;;;;;;;;;4915300;29;20472;-74
2022/03/30 03:13:07;;;;;;;25.92;10.88;;;;;;;;;;4915501;29;20088;-72
2022/03/30 03:15:35;;;;;;;26.50;10.60;;;;;;;;;;4913890;29;20127;-74
2022/03/30 03:18:02;;;;;;;26.17;10.32;;;;;;;;;;4914880;29;20395;-73
2022/03/30 03:20:29;;;;;;;25.35;9.70;;;;;;;;;;4915112;29;20550;-73
2022/03/30 03:22:56;;;;;;;23.73;9.90;;;;;;;;;;4917650;29;20035;-74
2022/03/30 03:25:22;;;;;;;22.75;10.60;;;;;;;;;;4918466;29;20153;-75
2022/03/30 03:27:48;;;;;;;32.92;11.70;;;;;;;;;;4918436;29;20149;-74
2022/03/30 03:30:15;;;;;;;28.92;11.63;;;;;;;;;;4918486;29;20116;-73
2022/03/30 03:32:42;;;;;;;25.58;10.73;;;;;;;;;;4920400;29;20107;-73
2022/03/30 03:35:09;;;;;;;35.67;11.20;;;;;;;;;;4918182;29;20036;-73
2022/03/30 03:37:36;;;;;;;32.80;10.55;;;;;;;;;;4919631;29;20036;-74
2022/03/30 03:40:03;;;;;;;22.83;9.88;;;;;;;;;;4917626;29;20064;-73
2022/03/30 03:42:28;;;;;;;47.50;12.27;;;;;;;;;;4918261;29;20039;-74
2022/03/30 03:44:54;;;;;;;41.38;11.38;;;;;;;;;;4921871;29;20040;-71
2022/03/30 03:47:20;;;;;;;31.73;11.15;;;;;;;;;;4919275;29;20111;-73
2022/03/30 03:49:46;;;;;;;25.50;10.35;;;;;;;;;;4918097;29;20040;-75
2022/03/30 03:52:12;;;;;;;35.80;11.38;;;;;;;;;;4918207;29;20028;-75
2022/03/30 03:54:38;;;;;;;26.38;11.05;;;;;;;;;;4916880;29;20376;-75
2022/03/30 03:57:04;;;;;;;40.03;13.90;;;;;;;;;;4918388;29;20462;-73
2022/03/30 03:59:30;;;;;;;44.95;13.40;;;;;;;;;;4917970;29;20391;-73
2022/03/30 04:01:56;;;;;;;31.27;12.52;;;;;;;;;;4915776;29;20035;-72
2022/03/30 04:04:22;;;;;;;36.38;12.77;;;;;;;;;;4917306;29;20087;-72
2022/03/30 04:06:48;;;;;;;30.63;11.30;;;;;;;;;;4916781;29;20031;-72
2022/03/30 04:09:13;;;;;;;36.50;11.65;;;;;;;;;;4917577;29;20052;-73
2022/03/30 04:11:39;;;;;;;26.67;11.75;;;;;;;;;;4917462;29;20059;-75
2022/03/30 04:14:05;;;;;;;34.55;12.73;;;;;;;;;;4917526;29;20032;-73
2022/03/30 04:16:31;;;;;;;35.97;12.88;;;;;;;;;;4909425;29;20025;-74
2022/03/30 04:18:57;;;;;;;34.00;13.35;;;;;;;;;;4904973;29;20088;-72
2022/03/30 04:21:23;;;;;;;38.85;13.80;;;;;;;;;;4898588;29;20107;-74
2022/03/30 04:23:49;;;;;;;39.35;11.60;;;;;;;;;;4898352;29;20115;-74
2022/03/30 04:26:14;;;;;;;37.75;12.05;;;;;;;;;;4909345;29;20201;-72
2022/03/30 04:28:40;;;;;;;38.72;11.60;;;;;;;;;;4914094;29;20051;-74
2022/03/30 04:31:10;;;;;;;46.47;13.07;;;;;;;;;;4917160;29;20095;-74
2022/03/30 04:33:37;;;;;;;27.67;10.90;;;;;;;;;;4916056;29;20028;-73
2022/03/30 04:36:03;;;;;;;31.15;11.43;;;;;;;;;;4915561;29;20028;-75
2022/03/30 04:38:30;;;;;;;28.95;11.30;;;;;;;;;;4916956;29;20032;-74
2022/03/30 04:40:55;;;;;;;25.80;11.10;;;;;;;;;;4916010;29;20043;-72
2022/03/30 04:43:21;;;;;;;28.67;11.48;;;;;;;;;;4917664;29;20036;-74
2022/03/30 04:45:47;;;;;;;34.45;10.85;;;;;;;;;;4917489;29;20036;-74
2022/03/30 04:48:13;;;;;;;23.67;10.32;;;;;;;;;;4917862;29;20036;-75
2022/03/30 04:50:39;;;;;;;25.00;11.23;;;;;;;;;;4917552;29;20088;-73
2022/03/30 04:53:05;;;;;;;24.92;10.55;;;;;;;;;;4917637;29;20036;-76
2022/03/30 04:55:31;;;;;;;35.67;12.00;;;;;;;;;;4917545;29;20083;-75
2022/03/30 04:57:57;;;;;;;35.17;13.02;;;;;;;;;;4917530;29;20036;-72
2022/03/30 05:00:23;;;;;;;54.22;13.90;;;;;;;;;;4917144;29;20032;-71
2022/03/30 05:02:49;;;;;;;42.60;13.23;;;;;;;;;;4917071;29;20033;-73
2022/03/30 05:05:15;;;;;;;37.45;12.70;;;;;;;;;;4917473;29;20087;-74
2022/03/30 05:07:41;;;;;;;33.42;11.98;;;;;;;;;;4917380;29;20040;-73
2022/03/30 05:10:12;;;;;;;31.23;12.48;;;;;;;;;;4916775;29;20079;-71
2022/03/30 05:12:39;;;;;;;36.92;12.25;;;;;;;;;;4915331;29;20420;-71
2022/03/30 05:15:05;;;;;;;32.17;12.45;;;;;;;;;;4910404;29;20467;-75
2022/03/30 05:17:31;;;;;;;37.83;13.77;;;;;;;;;;4920410;29;20040;-75
2022/03/30 05:19:58;;;;;;;38.42;14.27;;;;;;;;;;4916906;29;20052;-72
2022/03/30 05:22:25;;;;;;;38.50;13.77;;;;;;;;;;4917187;29;20047;-75
2022/03/30 05:24:51;;;;;;;36.85;14.73;;;;;;;;;;4915539;29;20032;-74
2022/03/30 05:27:16;;;;;;;42.63;16.15;;;;;;;;;;4916724;29;20348;-73
2022/03/30 05:29:42;;;;;;;44.22;15.15;;;;;;;;;;4916985;29;20035;-72
2022/03/30 05:32:08;;;;;;;37.35;13.68;;;;;;;;;;4916781;29;20043;-74
2022/03/30 05:34:34;;;;;;;31.77;13.88;;;;;;;;;;4916941;29;20020;-73
2022/03/30 05:37:00;;;;;;;31.25;13.77;;;;;;;;;;4915605;29;20094;-72
2022/03/30 05:39:26;;;;;;;26.33;12.00;;;;;;;;;;4916890;29;20020;-73
2022/03/30 05:41:54;;;;;;;35.50;13.20;;;;;;;;;;4912233;29;20037;-72
2022/03/30 05:44:20;;;;;;;31.15;13.75;;;;;;;;;;4912128;29;20399;-72
2022/03/30 05:46:46;;;;;;;28.55;11.57;;;;;;;;;;4914894;29;20039;-73
2022/03/30 05:49:12;;;;;;;27.08;11.18;;;;;;;;;;4915429;29;20034;-75
2022/03/30 05:51:37;;;;;;;30.33;12.40;;;;;;;;;;4914050;29;20084;-75
2022/03/30 05:54:03;;;;;;;29.05;12.20;;;;;;;;;;4914952;29;20115;-73
2022/03/30 05:59:15;;;;;;;29.45;11.77;;;;;;;;;;4896425;29;20045;-73
2022/03/30 06:01:41;;;;;;;30.65;11.23;;;;;;;;;;4896989;29;20040;-74
2022/03/30 06:04:07;;;;;;;32.35;10.68;;;;;;;;;;4899117;29;20032;-75
2022/03/30 06:06:34;;;;;;;31.60;10.77;;;;;;;;;;4915912;29;20038;-72
2022/03/30 06:09:04;;;;;;;31.65;10.70;;;;;;;;;;4914651;29;20035;-73
2022/03/30 06:11:29;;;;;;;32.75;12.00;;;;;;;;;;4912530;29;20044;-75
2022/03/30 06:13:58;;;;;;;27.83;11.05;;;;;;;;;;4915972;29;20068;-73
2022/03/30 06:16:25;;;;;;;31.67;11.43;;;;;;;;;;4916029;29;20044;-72
2022/03/30 06:18:52;;;;;;;32.75;10.35;;;;;;;;;;4916202;29;20035;-71
2022/03/30 06:21:18;;;;;;;27.63;11.00;;;;;;;;;;4914610;29;20032;-72
2022/03/30 06:23:44;;;;;;;29.77;10.20;;;;;;;;;;4915024;29;20031;-72
2022/03/30 06:26:10;;;;;;;31.75;10.32;;;;;;;;;;4909951;29;20089;-73
2022/03/30 06:28:36;;;;;;;31.08;9.73;;;;;;;;;;4904619;29;20045;-73
2022/03/30 06:31:03;;;;;;;28.33;9.95;;;;;;;;;;4896922;29;20060;-76
2022/03/30 06:33:29;;;;;;;33.58;10.52;;;;;;;;;;4899914;29;20052;-76
2022/03/30 06:35:56;;;;;;;35.33;11.20;;;;;;;;;;4904996;29;20032;-73
2022/03/30 06:38:22;;;;;;;27.17;10.95;;;;;;;;;;4897149;29;20490;-74
2022/03/30 06:40:49;;;;;;;30.85;11.02;;;;;;;;;;4897064;29;20040;-75
2022/03/30 06:43:15;;;;;;;23.50;9.63;;;;;;;;;;4908611;29;20131;-75
2022/03/30 06:45:41;;;;;;;34.15;10.98;;;;;;;;;;4916464;29;20051;-74
2022/03/30 06:48:07;;;;;;;38.38;11.15;;;;;;;;;;4910034;29;20035;-73
2022/03/30 06:50:33;;;;;;;30.80;11.70;;;;;;;;;;4909078;29;20122;-75
2022/03/30 06:53:00;;;;;;;35.47;11.82;;;;;;;;;;4915701;29;20039;-75
2022/03/30 06:55:26;;;;;;;34.78;11.75;;;;;;;;;;4916003;29;20040;-75
2022/03/30 06:57:52;;;;;;;26.67;11.18;;;;;;;;;;4918092;29;20091;-73
2022/03/30 07:00:18;;;;;;;22.00;10.32;;;;;;;;;;4918673;29;20059;-73
2022/03/30 07:02:44;;;;;;;29.27;10.20;;;;;;;;;;4917326;29;20032;-77
2022/03/30 07:05:11;;;;;;;23.63;10.15;;;;;;;;;;4917125;29;20048;-75
2022/03/30 07:10:23;;;;;;;34.63;11.38;;;;;;;;;;4917759;29;20036;-79
2022/03/30 07:12:51;;;;;;;30.55;12.05;;;;;;;;;;4917928;29;20032;-73
2022/03/30 07:15:23;;;;;;;24.60;11.00;;;;;;;;;;4918194;29;20424;-77
2022/03/30 07:17:51;;;;;;;23.17;9.48;;;;;;;;;;4918133;29;20032;-77
2022/03/30 07:20:18;;;;;;;28.60;9.05;;;;;;;;;;4918059;29;20062;-78
2022/03/30 07:22:45;;;;;;;20.00;8.25;;;;;;;;;;4917353;29;20104;-74
2022/03/30 07:25:11;;;;;;;20.35;8.52;;;;;;;;;;4916932;29;20020;-75
2022/03/30 07:27:42;;;;;;;21.20;8.90;;;;;;;;;;4911447;29;20048;-76
2022/03/30 07:30:09;;;;;;;29.67;9.75;;;;;;;;;;4910533;29;20543;-76
2022/03/30 07:32:36;;;;;;;28.88;10.27;;;;;;;;;;4924345;29;20455;-75
2022/03/30 07:35:03;;;;;;;21.70;9.23;;;;;;;;;;4919599;29;20527;-75
2022/03/30 07:37:30;;;;;;;23.08;9.85;;;;;;;;;;4917841;29;20420;-75
2022/03/30 07:39:55;;;;;;;31.95;9.75;;;;;;;;;;4917747;29;20040;-74
2022/03/30 07:42:21;;;;;;;32.45;10.07;;;;;;;;;;4917386;29;20076;-73
2022/03/30 07:44:47;;;;;;;25.42;10.02;;;;;;;;;;4916299;29;20054;-77
2022/03/30 07:47:13;;;;;;;30.00;10.35;;;;;;;;;;4918059;29;20055;-76
2022/03/30 07:49:39;;;;;;;28.17;11.52;;;;;;;;;;4918241;29;20044;-78
2022/03/30 07:52:05;;;;;;;30.33;10.60;;;;;;;;;;4918344;29;20028;-76
2022/03/30 07:54:31;;;;;;;29.63;10.85;;;;;;;;;;4912647;29;20040;-76
2022/03/30 07:56:57;;;;;;;29.27;10.75;;;;;;;;;;4911573;29;20028;-77
2022/03/30 07:59:23;;;;;;;28.00;10.07;;;;;;;;;;4917815;29;20168;-77
2022/03/30 08:01:48;;;;;;;30.02;10.73;;;;;;;;;;4916949;29;20479;-78
2022/03/30 08:04:14;;;;;;;27.50;11.18;;;;;;;;;;4918351;29;20047;-75
2022/03/30 08:06:40;;;;;;;31.33;12.30;;;;;;;;;;4918198;29;20360;-78
2022/03/30 08:09:06;;;;;;;28.27;12.20;;;;;;;;;;4917609;29;20375;-79
2022/03/30 08:11:32;;;;;;;30.00;11.48;;;;;;;;;;4918881;29;20043;-76
2022/03/30 08:13:58;;;;;;;19.88;9.70;;;;;;;;;;4918083;29;20091;-78
2022/03/30 08:16:25;;;;;;;26.77;10.88;;;;;;;;;;4916749;29;20072;-76
2022/03/30 08:18:51;;;;;;;31.00;12.10;;;;;;;;;;4917664;29;20082;-76
2022/03/30 08:24:02;;;;;;;24.10;11.00;;;;;;;;;;4917739;29;20057;-76
2022/03/30 08:26:28;;;;;;;35.22;11.45;;;;;;;;;;4918183;29;20095;-74
2022/03/30 08:28:55;;;;;;;21.90;9.70;;;;;;;;;;4917618;29;20054;-79
2022/03/30 08:31:21;;;;;;;27.52;9.90;;;;;;;;;;4917700;29;20032;-78
2022/03/30 08:33:47;;;;;;;22.17;8.40;;;;;;;;;;4917776;29;20036;-78
2022/03/30 08:36:12;;;;;;;22.85;8.82;;;;;;;;;;4916339;29;20075;-77
2022/03/30 08:38:38;;;;;;;24.90;8.73;;;;;;;;;;4916328;29;20044;-75
2022/03/30 08:41:05;;;;;;;31.80;9.63;;;;;;;;;;4917927;29;20047;-76
2022/03/30 08:43:30;;;;;;;18.92;7.05;;;;;;;;;;4917596;29;20036;-76
2022/03/30 08:45:59;;;;;;;20.67;8.60;;;;;;;;;;4917610;29;20087;-77
2022/03/30 08:48:25;;;;;;;30.92;9.77;;;;;;;;;;4917628;29;20040;-78
2022/03/30 08:50:52;;;;;;;22.73;8.35;;;;;;;;;;4917758;29;20032;-78
2022/03/30 08:53:20;;;;;;;20.48;8.35;;;;;;;;;;4918334;29;20459;-77
2022/03/30 08:55:46;;;;;;;26.08;9.38;;;;;;;;;;4917430;29;20024;-77
2022/03/30 08:58:13;;;;;;;28.60;8.85;;;;;;;;;;4917463;29;20059;-77
2022/03/30 09:00:39;;;;;;;23.35;8.05;;;;;;;;;;4917660;29;20123;-76
2022/03/30 09:03:07;;;;;;;23.70;8.98;;;;;;;;;;4917375;29;20452;-75
2022/03/30 09:05:37;;;;;;;26.60;9.40;;;;;;;;;;4917064;29;20048;-76
2022/03/30 09:08:08;;;;;;;23.83;8.63;;;;;;;;;;4914860;29;20058;-75
2022/03/30 09:10:35;;;;;;;23.27;7.95;;;;;;;;;;4916592;29;20040;-76
2022/03/30 09:13:02;;;;;;;27.88;8.32;;;;;;;;;;4916619;29;20499;-77
2022/03/30 09:15:28;;;;;;;18.20;7.05;;;;;;;;;;4916316;29;20043;-75
2022/03/30 09:17:59;;;;;;;22.35;7.28;;;;;;;;;;4916576;29;20032;-78
2022/03/30 09:20:25;;;;;;;18.15;7.20;;;;;;;;;;4916415;29;20059;-77
2022/03/30 09:22:56;;;;;;;23.88;7.82;;;;;;;;;;4917008;29;20034;-78
2022/03/30 09:25:30;;;;;;;27.83;8.82;;;;;;;;;;4914096;29;20108;-76
2022/03/30 09:27:58;;;;;;;27.60;7.45;;;;;;;;;;4914911;29;20103;-74
2022/03/30 09:30:26;;;;;;;20.92;7.63;;;;;;;;;;4915397;29;20111;-77
2022/03/30 09:32:54;;;;;;;23.92;7.97;;;;;;;;;;4915129;29;20058;-76
2022/03/30 09:35:25;;;;;;;21.63;7.75;;;;;;;;;;4916083;29;20024;-76
2022/03/30 09:38:15;;;;;;;23.67;7.20;;;;;;;;;;4914444;29;20039;-76
2022/03/30 09:40:48;;;;;;;30.58;8.80;;;;;;;;;;4913078;29;20111;-76
2022/03/30 09:43:24;;;;;;;21.05;7.63;;;;;;;;;;4910806;29;20044;-77
2022/03/30 09:46:02;;;;;;;23.10;8.00;;;;;;;;;;4915535;29;20067;-77
2022/03/30 09:48:34;;;;;;;22.40;7.97;;;;;;;;;;4905413;29;20044;-77
2022/03/30 09:51:06;;;;;;;17.20;7.22;;;;;;;;;;4926136;29;20063;-77
2022/03/30 09:53:34;;;;;;;22.70;7.03;;;;;;;;;;4896640;29;20344;-77
2022/03/30 09:56:19;;;;;;;27.58;7.45;;;;;;;;;;4895829;29;20025;-76
2022/03/30 09:58:46;;;;;;;21.92;7.22;;;;;;;;;;4897046;29;20062;-77
2022/03/30 10:01:13;;;;;;;25.67;6.40;;;;;;;;;;4906353;29;20031;-76
2022/03/30 10:03:43;;;;;;;22.67;6.05;;;;;;;;;;4912604;29;20090;-77
2022/03/30 10:06:10;;;;;;;20.65;7.18;;;;;;;;;;4896162;29;20103;-75
2022/03/30 10:08:38;;;;;;;14.75;5.47;;;;;;;;;;4895942;29;20055;-77
2022/03/30 10:11:04;;;;;;;16.30;6.45;;;;;;;;;;4896144;29;20056;-75
2022/03/30 10:13:30;;;;;;;19.33;7.15;;;;;;;;;;4896941;29;20088;-78
2022/03/30 10:15:57;;;;;;;16.90;5.60;;;;;;;;;;4894696;29;20052;-76
2022/03/30 10:18:23;;;;;;;23.77;6.07;;;;;;;;;;4896054;29;20040;-77
2022/03/30 10:21:22;;;;;;;24.05;7.68;;;;;;;;;;4898091;29;20036;-78
2022/03/30 10:24:00;;;;;;;19.98;7.07;;;;;;;;;;4896164;29;20028;-77
2022/03/30 10:26:36;;;;;;;20.42;6.35;;;;;;;;;;4895655;29;20413;-79
2022/03/30 10:29:07;;;;;;;17.70;6.38;;;;;;;;;;4902557;29;20059;-77
2022/03/30 10:31:34;;;;;;;21.13;7.50;;;;;;;;;;4909384;29;20055;-78
2022/03/30 10:34:24;;;;;;;22.10;6.47;;;;;;;;;;4917945;29;20052;-78
2022/03/30 10:37:09;;;;;;;19.15;6.50;;;;;;;;;;4914635;29;20042;-76
2022/03/30 10:39:53;;;;;;;20.90;6.32;;;;;;;;;;4918394;29;20036;-76
2022/03/30 10:42:19;;;;;;;18.25;4.93;;;;;;;;;;4917617;29;20040;-78
2022/03/30 10:44:51;;;;;;;16.95;4.50;;;;;;;;;;4915633;29;20039;-76
2022/03/30 10:47:26;;;;;;;17.20;5.63;;;;;;;;;;4917082;29;20036;-77
2022/03/30 10:49:58;;;;;;;29.85;5.28;;;;;;;;;;4913019;29;20067;-76
2022/03/30 10:52:27;;;;;;;21.48;6.22;;;;;;;;;;4899440;29;20083;-72
2022/03/30 10:55:12;;;;;;;21.35;5.65;;;;;;;;;;4899390;29;20024;-76
2022/03/30 10:57:48;;;;;;;25.42;6.50;;;;;;;;;;4911147;29;20095;-78
2022/03/30 11:00:38;;;;;;;18.77;5.82;;;;;;;;;;4918515;29;20036;-77
2022/03/30 11:03:10;;;;;;;14.38;6.05;;;;;;;;;;4918617;29;20103;-79
2022/03/30 11:05:36;;;;;;;19.25;7.85;;;;;;;;;;4918902;29;20051;-77
2022/03/30 11:08:33;;;;;;;15.20;5.20;;;;;;;;;;4918776;29;20036;-78
2022/03/30 11:11:03;;;;;;;19.73;6.10;;;;;;;;;;4917665;29;20055;-78
2022/03/30 11:13:30;;;;;;;17.63;5.72;;;;;;;;;;4918160;29;20111;-79
2022/03/30 11:16:04;;;;;;;17.25;6.40;;;;;;;;;;4919295;29;20028;-77
2022/03/30 11:18:32;;;;;;;20.77;5.90;;;;;;;;;;4919359;29;20063;-78
2022/03/30 11:21:17;;;;;;;21.05;5.85;;;;;;;;;;4919005;29;20074;-77
2022/03/30 11:24:02;;;;;;;24.60;5.65;;;;;;;;;;4919137;29;20035;-78
2022/03/30 11:27:00;;;;;;;14.00;5.30;;;;;;;;;;4918614;29;20111;-77
2022/03/30 11:29:45;;;;;;;25.67;6.32;;;;;;;;;;4888490;29;20064;-78
2022/03/30 11:32:19;;;;;;;16.55;5.03;;;;;;;;;;4899974;29;20659;-79
2022/03/30 11:34:48;;;;;;;20.38;6.63;;;;;;;;;;4899791;29;20053;-79
2022/03/30 11:37:14;;;;;;;22.75;6.28;;;;;;;;;;4900012;29;20100;-78
2022/03/30 11:39:41;;;;;;;21.13;5.60;;;;;;;;;;4900500;29;20127;-77
2022/03/30 11:42:07;;;;;;;22.00;7.40;;;;;;;;;;4900416;29;20068;-78
2022/03/30 11:47:24;;;;;;;20.23;5.45;;;;;;;;;;4900065;29;20037;-80
2022/03/30 11:49:54;;;;;;;17.38;6.05;;;;;;;;;;4899688;29;20036;-78
2022/03/30 11:52:22;;;;;;;19.25;5.43;;;;;;;;;;4917526;29;20483;-77
2022/03/30 11:54:50;;;;;;;24.35;5.93;;;;;;;;;;4918756;29;20031;-79
2022/03/30 11:57:17;;;;;;;19.15;5.35;;;;;;;;;;4918677;29;20032;-78
2022/03/30 11:59:56;;;;;;;22.17;6.75;;;;;;;;;;4918972;29;20032;-78
2022/03/30 12:02:24;;;;;;;24.98;6.10;;;;;;;;;;4919244;29;20036;-75
2022/03/30 12:04:50;;;;;;;18.08;5.72;;;;;;;;;;4918687;29;20063;-77
2022/03/30 12:07:19;;;;;;;25.02;5.40;;;;;;;;;;4918855;29;20047;-79
2022/03/30 12:09:54;;;;;;;19.30;5.40;;;;;;;;;;4918327;29;20020;-77
2022/03/30 12:12:35;;;;;;;16.63;5.53;;;;;;;;;;4917799;29;20122;-79
2022/03/30 12:15:19;;;;;;;25.45;6.30;;;;;;;;;;4917922;29;20179;-78
2022/03/30 12:17:54;;;;;;;23.55;5.80;;;;;;;;;;4918112;29;20086;-76
2022/03/30 12:20:23;;;;;;;24.90;5.30;;;;;;;;;;4918526;29;20443;-77
2022/03/30 12:23:01;;;;;;;21.27;5.30;;;;;;;;;;4918451;29;20106;-75
2022/03/30 12:25:30;;;;;;;20.88;5.20;;;;;;;;;;4918537;29;20043;-78
2022/03/30 12:27:57;;;;;;;15.98;4.93;;;;;;;;;;4917972;29;20044;-75
2022/03/30 12:30:24;;;;;;;22.50;5.38;;;;;;;;;;4918697;29;20051;-75
2022/03/30 12:32:50;;;;;;;16.95;5.10;;;;;;;;;;4918684;29;20501;-76
2022/03/30 12:35:18;;;;;;;24.63;5.70;;;;;;;;;;4918058;29;20152;-76
2022/03/30 12:37:46;;;;;;;17.90;5.10;;;;;;;;;;4918387;29;20478;-76
2022/03/30 12:40:15;;;;;;;20.45;5.45;;;;;;;;;;4917016;29;20048;-78
2022/03/30 12:42:41;;;;;;;22.38;5.40;;;;;;;;;;4918332;29;20115;-76
2022/03/30 12:45:14;;;;;;;25.90;5.22;;;;;;;;;;4917421;29;20036;-76
2022/03/30 12:47:54;;;;;;;23.02;5.20;;;;;;;;;;4917718;29;20040;-77
2022/03/30 12:50:27;;;;;;;19.55;5.60;;;;;;;;;;4917764;29;20046;-77
2022/03/30 12:52:54;;;;;;;21.67;5.43;;;;;;;;;;4916363;29;20036;-78
2022/03/30 12:55:23;;;;;;;17.95;5.15;;;;;;;;;;4917138;29;20020;-77
2022/03/30 12:58:16;;;;;;;23.08;5.65;;;;;;;;;;4917677;29;20047;-77
2022/03/30 13:00:42;;;;;;;15.90;4.60;;;;;;;;;;4917483;29;20032;-76
2022/03/30 13:03:11;;;;;;;27.02;5.07;;;;;;;;;;4917289;29;20028;-79
2022/03/30 13:05:41;;;;;;;27.00;6.05;;;;;;;;;;4917871;29;20068;-77
2022/03/30 13:08:19;;;;;;;25.23;5.43;;;;;;;;;;4917204;29;20051;-80
2022/03/30 13:10:56;;;;;;;25.48;5.30;;;;;;;;;;4917472;29;20127;-78
2022/03/30 13:13:24;;;;;;;29.75;5.90;;;;;;;;;;4917468;29;20043;-76
2022/03/30 13:15:52;;;;;;;26.95;6.90;;;;;;;;;;4917409;29;20431;-77
2022/03/30 13:18:21;;;;;;;18.42;5.47;;;;;;;;;;4916184;29;20450;-76
2022/03/30 13:20:59;;;;;;;30.02;5.65;;;;;;;;;;4917357;29;20043;-82
2022/03/30 13:23:41;;;;;;;22.08;5.90;;;;;;;;;;4916081;29;20040;-77
2022/03/30 13:26:24;;;;;;;19.80;5.32;;;;;;;;;;4916851;29;20036;-78
2022/03/30 13:28:50;;;;;;;24.67;5.68;;;;;;;;;;4916610;29;20452;-78
2022/03/30 13:31:18;;;;;;;27.15;5.88;;;;;;;;;;4916854;29;20039;-79
2022/03/30 13:33:46;;;;;;;24.85;5.47;;;;;;;;;;4916741;29;20078;-79
2022/03/30 13:36:12;;;;;;;22.80;5.25;;;;;;;;;;4916657;29;20028;-79
2022/03/30 13:38:38;;;;;;;25.77;5.55;;;;;;;;;;4916794;29;20417;-79
2022/03/30 13:41:04;;;;;;;21.23;5.78;;;;;;;;;;4916893;29;20040;-78
2022/03/30 13:43:30;;;;;;;27.40;5.90;;;;;;;;;;4917470;29;20040;-78
2022/03/30 13:45:56;;;;;;;26.48;5.15;;;;;;;;;;4917148;29;20028;-77
2022/03/30 13:48:21;;;;;;;18.92;5.13;;;;;;;;;;4917355;29;20391;-80
2022/03/30 13:50:48;;;;;;;22.65;5.75;;;;;;;;;;4916768;29;20063;-78
2022/03/30 13:53:15;;;;;;;19.67;5.35;;;;;;;;;;4916652;29;20036;-78
2022/03/30 13:55:41;;;;;;;21.23;5.70;;;;;;;;;;4916684;29;20467;-79
2022/03/30 13:58:07;;;;;;;33.65;6.53;;;;;;;;;;4916575;29;20043;-77
2022/03/30 14:00:37;;;;;;;20.02;5.13;;;;;;;;;;4916698;29;20492;-79
2022/03/30 14:03:02;;;;;;;23.13;6.82;;;;;;;;;;4916656;29;20447;-78
2022/03/30 14:05:30;;;;;;;20.75;5.40;;;;;;;;;;4917129;29;20057;-78
2022/03/30 14:07:57;;;;;;;31.30;6.43;;;;;;;;;;4916031;29;20028;-78
2022/03/30 14:10:26;;;;;;;21.33;6.97;;;;;;;;;;4916069;29;20032;-79
2022/03/30 14:12:53;;;;;;;21.98;5.63;;;;;;;;;;4916422;29;20040;-77
2022/03/30 14:15:20;;;;;;;23.00;5.80;;;;;;;;;;4913173;29;20031;-78
2022/03/30 14:17:47;;;;;;;29.27;6.13;;;;;;;;;;4916181;29;20044;-81
2022/03/30 14:20:13;;;;;;;28.48;6.45;;;;;;;;;;4915951;29;20028;-78
2022/03/30 14:22:44;;;;;;;20.08;5.85;;;;;;;;;;4916040;29;20036;-76
2022/03/30 14:25:11;;;;;;;25.58;6.80;;;;;;;;;;4915724;29;20067;-77
2022/03/30 14:27:38;;;;;;;25.35;5.90;;;;;;;;;;4915444;29;20052;-79
2022/03/30 14:30:08;;;;;;;28.33;6.78;;;;;;;;;;4915524;29;20078;-77
2022/03/30 14:32:34;;;;;;;32.17;7.18;;;;;;;;;;4915987;29;20348;-77
2022/03/30 14:35:00;;;;;;;22.63;6.80;;;;;;;;;;4916101;29;20028;-80
2022/03/30 14:37:28;;;;;;;25.65;6.90;;;;;;;;;;4916110;29;20051;-76
2022/03/30 14:39:54;;;;;;;29.58;7.45;;;;;;;;;;4915854;29;20036;-77
2022/03/30 14:42:21;;;;;;;29.27;7.53;;;;;;;;;;4916037;29;20363;-77
2022/03/30 14:44:47;;;;;;;33.03;11.88;;;;;;;;;;4915615;29;20471;-77